Latest Coastal Weather Observations for Lucinda

IDQ60701

Issued at 12:42 pm EST Monday 3 August 2015 (issued every 10 minutes, with the page automatically refreshed every 10 minutes)

About coastal observations | Map of coastal stations | Coastal observations for QLD | Marine services | Other Formats
Station Details ID: 032141 Name: LUCINDA POINT Lat: -18.52 Lon: 146.39 Height: 10.0 m
Data from the previous 72 hours. | See also: Recent months at Lucinda
Date/Time
EST
Temp

°C
Wind Pressure Rain
since 9am
mm
Weather Cloud Vis
km
Sea
Height
m
Swell
Dir
 
Speed
knots
Gust
knots
hPa Trend Height
m
Period
s
Dir
03/12:30pm 21.9 S 6 8 1018.4 - 0.0 - - - - - - -
03/12:00pm 21.7 SSW 6 7 1018.8 - 0.0 - - - - - - -
03/11:30am 21.6 SSW 6 8 1019.2 - 0.0 - - - - - - -
03/11:00am 21.2 SSW 7 8 1019.5 - 0.0 - - - - - - -
03/10:30am 21.1 SSW 7 8 1019.9 - 0.0 - - - - - - -
03/10:00am 20.7 SSW 7 8 1020.2 - 0.0 - - - - - - -
03/09:30am 20.3 SW 8 10 1020.1 - 0.0 - - - - - - -
03/09:00am 19.9 SW 8 8 1020.0 - 0.0 - - - - - - -
03/08:30am 19.7 WSW 7 8 1019.6 - 0.0 - - - - - - -
03/08:00am 19.4 WSW 7 9 1019.5 - 0.0 - - - - - - -
03/07:30am 19.1 WSW 8 9 1019.1 - 0.0 - - - - - - -
03/07:00am 19.3 WSW 9 10 1018.7 - 0.0 - - - - - - -
03/06:30am 19.3 WSW 8 8 1018.4 - 0.0 - - - - - - -
03/06:00am 19.3 WSW 9 9 1018.2 - 0.0 - - - - - - -
03/05:30am 19.3 SW 9 10 1018.0 - 0.0 - - - - - - -
03/05:00am 19.3 WSW 9 10 1018.0 - 0.0 - - - - - - -
03/04:30am 19.4 WSW 9 11 1017.8 - 0.0 - - - - - - -
03/04:00am 19.2 WSW 10 12 1018.0 - 0.0 - - - - - - -
03/03:30am 19.3 WSW 9 10 1017.7 - 0.0 - - - - - - -
03/03:00am 19.2 SW 9 11 1017.8 - 0.0 - - - - - - -
03/02:30am 19.4 SW 9 10 1018.1 - 0.0 - - - - - - -
03/02:00am 19.2 SW 9 10 1018.4 - 0.0 - - - - - - -
03/01:30am 19.5 SW 8 9 1018.7 - 0.0 - - - - - - -
03/01:00am 19.6 WSW 8 9 1018.9 - 0.0 - - - - - - -
03/12:30am 20.0 WSW 7 8 1019.1 - 0.0 - - - - - - -
03/12:00am 20.2 SW 7 8 1019.4 - 0.0 - - - - - - -
 
Date/Time
EST
Temp

°C
Wind Pressure Rain
since 9am
mm
Weather Cloud Vis
km
Sea
Height
m
Swell
Dir
 
Speed
knots
Gust
knots
hPa Trend Height
m
Period
s
Dir
02/11:30pm 21.9 SE 4 6 1019.5 - 0.0 - - - - - - -
02/11:00pm 21.9 ESE 4 7 1019.6 - 0.0 - - - - - - -
02/10:30pm 22.0 SE 5 8 1019.7 - 0.0 - - - - - - -
02/10:00pm 22.1 ESE 5 8 1019.5 - 0.0 - - - - - - -
02/09:30pm 22.0 ESE 5 6 1019.6 - 0.0 - - - - - - -
02/09:00pm 21.9 ESE 5 8 1019.5 - 0.0 - - - - - - -
02/08:30pm 21.9 SE 4 7 1019.4 - 0.0 - - - - - - -
02/08:00pm 21.9 SE 4 7 1019.1 - 0.0 - - - - - - -
02/07:30pm 21.8 ESE 4 8 1018.9 - 0.0 - - - - - - -
02/07:00pm 21.9 ESE 5 8 1018.8 - 0.0 - - - - - - -
02/06:30pm 22.1 SE 5 8 1018.7 - 0.0 - - - - - - -
02/06:00pm 22.4 ESE 4 7 1018.5 - 0.0 - - - - - - -
02/05:30pm 22.8 ESE 5 8 1018.4 - 0.0 - - - - - - -
02/05:00pm 23.0 ESE 5 9 1018.3 - 0.0 - - - - - - -
02/04:30pm 23.1 SE 5 9 1018.2 - 0.0 - - - - - - -
02/04:00pm 23.4 SSW 4 5 1018.3 - 0.0 - - - - - - -
02/03:30pm 22.7 SSW 4 6 1018.5 - 0.0 - - - - - - -
02/03:00pm 22.6 SSE 6 8 1018.7 - 0.0 - - - - - - -
02/02:30pm 22.4 S 7 8 1018.8 - 0.0 - - - - - - -
02/02:00pm 22.2 S 6 9 1019.1 - 0.0 - - - - - - -
02/01:30pm 21.6 SSW 8 10 1019.4 - 0.0 - - - - - - -
02/01:00pm 21.3 S 8 10 1019.9 - 0.0 - - - - - - -
02/12:30pm 21.5 S 8 10 1020.4 - 0.0 - - - - - - -
02/12:00pm 21.2 SSW 9 11 1020.9 - 0.0 - - - - - - -
02/11:30am 21.1 SSW 10 13 1021.2 - 0.0 - - - - - - -
02/11:00am 20.7 S 10 13 1021.4 - 0.0 - - - - - - -
02/10:30am 20.5 S 10 13 1021.5 - 0.0 - - - - - - -
02/10:00am 20.2 SSE 10 13 1021.6 - 0.0 - - - - - - -
02/09:30am 20.4 SSE 9 11 1021.6 - 0.0 - - - - - - -
02/09:00am 21.0 S 9 13 1021.3 - 0.0 - - - - - - -
02/08:30am 21.3 S 7 11 1021.1 - 0.0 - - - - - - -
02/08:00am 21.1 S 9 12 1020.6 - 0.0 - - - - - - -
02/07:30am 21.3 S 12 14 1020.4 - 0.0 - - - - - - -
02/07:00am 21.7 S 8 11 1020.1 - 0.0 - - - - - - -
02/06:30am 21.5 S 6 8 1019.6 - 0.0 - - - - - - -
02/06:00am 21.6 S 9 12 1019.5 - 0.0 - - - - - - -
02/05:30am 21.6 S 8 11 1019.1 - 0.0 - - - - - - -
02/05:00am 21.9 SE 10 14 1018.8 - 0.0 - - - - - - -
02/04:30am 21.7 SE 9 14 1018.7 - 0.0 - - - - - - -
02/04:00am 21.7 SE 10 16 1018.7 - 0.0 - - - - - - -
02/03:30am 21.7 ESE 9 15 1018.9 - 0.0 - - - - - - -
02/03:00am 21.9 SE 9 15 1019.0 - 0.0 - - - - - - -
02/02:30am 21.9 ESE 10 17 1019.1 - 0.0 - - - - - - -
02/02:00am 22.0 SE 9 15 1019.3 - 0.0 - - - - - - -
02/01:30am 22.1 ESE 10 16 1019.4 - 0.0 - - - - - - -
02/01:00am 21.9 ESE 9 16 1019.3 - 0.0 - - - - - - -
02/12:30am 21.9 SE 10 19 1019.5 - 0.0 - - - - - - -
02/12:00am 22.0 SE 8 13 1019.6 - 0.0 - - - - - - -
 
Date/Time
EST
Temp

°C
Wind Pressure Rain
since 9am
mm
Weather Cloud Vis
km
Sea
Height
m
Swell
Dir
 
Speed
knots
Gust
knots
hPa Trend Height
m
Period
s
Dir
01/11:30pm 22.1 ESE 9 13 1019.5 - 0.0 - - - - - - -
01/11:00pm 22.1 SE 8 14 1019.7 - 0.0 - - - - - - -
01/10:30pm 22.1 ESE 9 15 1019.6 - 0.0 - - - - - - -
01/10:00pm 21.9 SE 8 13 1019.7 - 0.0 - - - - - - -
01/09:30pm 21.9 ESE 7 13 1019.5 - 0.0 - - - - - - -
01/09:00pm 21.9 SE 7 12 1019.4 - 0.0 - - - - - - -
01/08:30pm 21.7 SE 7 12 1019.3 - 0.0 - - - - - - -
01/08:00pm 21.6 ESE 7 11 1019.2 - 0.0 - - - - - - -
01/07:30pm 21.6 SE 8 14 1018.9 - 0.0 - - - - - - -
01/07:00pm 21.7 ESE 9 16 1018.5 - 0.0 - - - - - - -
01/06:30pm 21.7 SE 9 16 1018.3 - 0.0 - - - - - - -
01/06:00pm 21.9 SE 8 14 1018.1 - 0.0 - - - - - - -
01/05:30pm 21.9 E 9 14 1017.9 - 0.0 - - - - - - -
01/05:00pm 22.2 SE 8 14 1017.8 - 0.0 - - - - - - -
01/04:30pm 22.7 SE 8 12 1017.9 - 0.0 - - - - - - -
01/04:00pm 22.5 SE 9 13 1018.0 - 0.0 - - - - - - -
01/03:30pm 22.5 SE 8 12 1018.0 - 0.0 - - - - - - -
01/03:00pm 22.3 S 6 11 1018.1 - 0.0 - - - - - - -
01/02:30pm 22.5 SSE 6 10 1018.4 - 0.0 - - - - - - -
01/02:00pm 21.8 S 13 15 1018.8 - 0.0 - - - - - - -
01/01:30pm 21.9 S 13 16 1019.4 - 0.0 - - - - - - -
01/01:00pm 21.8 S 13 15 1020.0 - 0.0 - - - - - - -
01/12:30pm 21.4 S 14 16 1020.5 - 0.0 - - - - - - -
01/12:00pm 21.3 S 14 16 1020.9 - 0.0 - - - - - - -
01/11:30am 20.9 S 14 16 1021.3 - 0.0 - - - - - - -
01/11:00am 20.8 S 13 16 1021.7 - 0.0 - - - - - - -
01/10:30am 20.5 S 15 17 1021.7 - 0.0 - - - - - - -
01/10:00am 20.7 S 16 18 1021.8 - 0.0 - - - - - - -
01/09:30am 20.7 S 16 19 1021.7 - 0.0 - - - - - - -
01/09:00am 21.2 S 12 17 1021.6 - 0.0 - - - - - - -
01/08:30am 21.3 S 11 15 1021.1 - 0.0 - - - - - - -
01/08:00am 21.6 S 9 14 1020.9 - 0.0 - - - - - - -
01/07:30am 21.8 SE 10 18 1020.4 - 0.0 - - - - - - -
01/07:00am 21.7 SE 11 17 1020.1 - 0.0 - - - - - - -
01/06:30am 21.7 SE 10 16 1019.8 - 0.0 - - - - - - -
01/06:00am 21.8 ESE 10 16 1019.6 - 0.0 - - - - - - -
01/05:30am 21.8 SE 10 15 1019.2 - 0.0 - - - - - - -
01/05:00am 21.9 SE 10 16 1019.0 - 0.0 - - - - - - -
01/04:30am 21.8 SE 9 16 1018.7 - 0.0 - - - - - - -
01/04:00am 21.6 SE 9 15 1018.7 - 0.0 - - - - - - -
01/03:30am 21.9 ESE 10 17 1018.9 - 0.0 - - - - - - -
01/03:00am 21.9 ESE 11 18 1018.9 - 0.0 - - - - - - -
01/02:30am 21.9 SE 13 22 1018.7 - 0.0 - - - - - - -
01/02:00am 21.9 SSE 11 20 1018.9 - 0.0 - - - - - - -
01/01:30am 21.9 SE 12 20 1019.4 - 0.0 - - - - - - -
01/01:00am 21.9 SE 13 23 1019.5 - 0.0 - - - - - - -
01/12:30am 21.9 SE 12 22 1019.6 - 0.0 - - - - - - -
01/12:00am 22.0 SE 12 19 1019.5 - 0.0 - - - - - - -
 
Date/Time
EST
Temp

°C
Wind Pressure Rain
since 9am
mm
Weather Cloud Vis
km
Sea
Height
m
Swell
Dir
 
Speed
knots
Gust
knots
hPa Trend Height
m
Period
s
Dir
31/11:30pm 21.9 SE 11 17 1019.8 - 0.0 - - - - - - -
31/11:00pm 22.0 ESE 10 17 1020.0 - 0.0 - - - - - - -
31/10:30pm 22.1 ESE 10 17 1020.0 - 0.0 - - - - - - -
31/10:00pm 22.2 ESE 11 18 1019.9 - 0.0 - - - - - - -
31/09:30pm 22.2 ESE 8 14 1019.8 - 0.0 - - - - - - -
31/09:00pm 22.0 SE 8 14 1019.8 - 0.0 - - - - - - -
31/08:30pm 22.0 ESE 12 17 1019.4 - 0.0 - - - - - - -
31/08:00pm 21.9 ESE 10 17 1019.0 - 0.0 - - - - - - -
31/07:30pm 21.8 ESE 12 19 1018.7 - 0.0 - - - - - - -
31/07:00pm 21.8 SE 9 15 1018.4 - 0.0 - - - - - - -
31/06:30pm 21.8 ESE 11 17 1018.2 - 0.0 - - - - - - -
31/06:00pm 21.8 ESE 10 16 1018.1 - 0.0 - - - - - - -
31/05:30pm 22.0 ESE 9 15 1018.0 - 0.0 - - - - - - -
31/05:00pm 22.4 SE 7 13 1017.9 - 0.0 - - - - - - -
31/04:30pm 22.2 ESE 9 14 1017.8 - 0.0 - - - - - - -
31/04:00pm 22.2 SE 8 13 1017.8 - 0.0 - - - - - - -
31/03:30pm 22.3 ESE 8 15 1017.8 - 0.0 - - - - - - -
31/03:00pm 22.4 SE 11 16 1018.0 - 0.0 - - - - - - -
31/02:30pm 21.9 S 11 14 1018.3 - 0.0 - - - - - - -
31/02:00pm 22.0 S 8 12 1018.6 - 0.0 - - - - - - -
31/01:30pm 21.7 S 10 13 1019.2 - 0.0 - - - - - - -
31/01:00pm 21.4 S 10 13 1019.7 - 0.0 - - - - - - -

Other Formats:

Comma delimited format used in spreadsheet applications
http://www.bom.gov.au/fwo/IDQ60701/IDQ60701.94295.axf

JavaScript Object Notation format (JSON) in row-major order
http://www.bom.gov.au/fwo/IDQ60701/IDQ60701.94295.json